KHL weather

CLOSED Khan Jahan Ali Airport
Khulna, Khulna Division, Bangladesh

Public forecast

Using degrees Celsius for public forecast. Weather courtesy of forecast.io.

Closest aviation weather report (METAR) to Khan Jahan Ali Airport

Closest report is Netaji Subhash Chandra Bose International Airport, 66.4 nm (123.0 km) W. Retrieved 2020/08/07 11:30 UTC (50 minutes ago):

VECC 071130Z 17007KT 4000 HZ SCT018 SCT025 32/30 Q0999 NOSIG

Closest aviation forecast (TAF) to Khan Jahan Ali Airport

Closest forecast is Netaji Subhash Chandra Bose International Airport, 66.4 nm (123.0 km) W. Retrieved 2020/08/07 12:48 UTC (0 seconds ago):

TAF VECC 071100Z 0712/0818 18008KT 3500 HZ SCT018 SCT100 PROB40 TEMPO 0714/0718 2000 TSRA SCT015 FEW025CB OVC090 BECMG 0722/0724 2800 -RA HZ BECMG 0803/0805 4000 HZ SCT018 BKN100 PROB40 TEMPO 0808/0812 2000 TSRA SCT015 FEW025CB OVC090